Terminal Aerodrome Forecast
Issued by NWS Mt. Holly, NJ

Home | Current Version | Previous Version | Text Only | Print | Product List | Glossary On
Versions: 1 2 3 4 5 6 7 8 9 10 11 12 13 14 15 16 17 18 19 20 21 22 23 24 25
000
FTUS41 KPHI 180536
TAFRDG
TAF
KRDG 180536Z 1806/1906 01005KT 2SM BR VCSH OVC004
     FM181100 31004KT 3SM BR BKN005 OVC015
     FM181500 31006KT P6SM VCSH BKN015
     FM181700 32010G17KT P6SM BKN035
     FM190000 31004KT P6SM BKN040=

USA.gov is the U.S. government's official web portal to all federal, state and local government web resources and services.